Time;durP1;ratioP1;P1;durP2;ratioP2;P2;SDS_P1;SDS_P2;PMS_P1;PMS_P2;Temp;Humidity;BMP_temperature;BMP_pressure;BME280_temperature;BME280_humidity;BME280_pressure;Samples;Min_cycle;Max_cycle;Signal;HPM_P1;HPM_P2
2023/10/07 06:38:12;;;;;;;6.25;3.97;;;;;;;;;;10590853;28;20047;-85
2023/10/07 06:55:02;;;;;;;9.80;6.47;;;;;;;;;;10546266;28;20032;-86
2023/10/07 07:00:11;;;;;;;10.48;6.75;;;;;;;;;;10530867;28;20397;-86
2023/10/07 07:05:16;;;;;;;7.63;4.30;;;;;;;;;;10532590;28;20032;-84
2023/10/07 07:10:17;;;;;;;6.50;3.90;;;;;;;;;;10531712;28;20024;-79
2023/10/07 07:15:27;;;;;;;9.32;6.00;;;;;;;;;;10531317;28;20071;-79
2023/10/07 07:31:10;;;;;;;10.75;4.47;;;;;;;;;;10550609;28;20021;-79
2023/10/07 07:41:55;;;;;;;10.85;4.93;;;;;;;;;;10550403;28;20445;-79
2023/10/07 07:46:56;;;;;;;8.30;4.40;;;;;;;;;;10550465;28;20028;-80
2023/10/07 07:51:58;;;;;;;9.13;4.63;;;;;;;;;;10550397;28;20090;-79
2023/10/07 07:57:04;;;;;;;7.30;4.30;;;;;;;;;;10533548;28;20409;-79
2023/10/07 08:02:13;;;;;;;10.20;4.90;;;;;;;;;;10551641;28;20032;-79
2023/10/07 08:12:19;;;;;;;7.85;4.18;;;;;;;;;;10560793;28;20087;-79
2023/10/07 08:17:25;;;;;;;7.88;4.30;;;;;;;;;;10545966;28;20093;-80
2023/10/07 08:22:27;;;;;;;8.45;4.68;;;;;;;;;;10547197;28;20016;-79
2023/10/07 08:32:48;;;;;;;9.57;4.72;;;;;;;;;;10548922;28;20060;-79
2023/10/07 08:37:49;;;;;;;8.15;4.20;;;;;;;;;;10533239;28;20031;-83
2023/10/07 08:42:51;;;;;;;8.65;4.18;;;;;;;;;;10537769;28;20031;-84
2023/10/07 08:47:52;;;;;;;6.63;4.07;;;;;;;;;;10540334;28;20085;-83
2023/10/07 08:53:03;;;;;;;5.97;3.85;;;;;;;;;;10563165;28;20096;-82
2023/10/07 08:58:05;;;;;;;8.25;4.45;;;;;;;;;;10560795;28;20427;-82
2023/10/07 09:03:14;;;;;;;8.75;4.30;;;;;;;;;;10529240;28;20172;-79
2023/10/07 09:08:22;;;;;;;6.60;4.07;;;;;;;;;;10548289;28;20397;-80
2023/10/07 09:13:28;;;;;;;7.68;3.65;;;;;;;;;;10520501;28;20046;-84
2023/10/07 09:18:37;;;;;;;7.72;4.38;;;;;;;;;;10550189;28;20016;-83
2023/10/07 09:23:47;;;;;;;6.97;3.60;;;;;;;;;;10546504;28;20031;-83
2023/10/07 09:28:58;;;;;;;7.93;4.05;;;;;;;;;;10543563;28;20494;-83
2023/10/07 09:34:09;;;;;;;7.90;3.90;;;;;;;;;;10550848;28;20024;-84
2023/10/07 09:44:28;;;;;;;5.85;3.33;;;;;;;;;;10549259;28;20032;-83
2023/10/07 09:49:30;;;;;;;7.82;4.10;;;;;;;;;;10549325;28;20035;-82
2023/10/07 09:54:47;;;;;;;7.90;4.00;;;;;;;;;;10531630;28;20093;-83
2023/10/07 10:01:03;;;;;;;7.38;4.20;;;;;;;;;;10551497;28;20023;-82
2023/10/07 10:05:56;;;;;;;5.93;3.58;;;;;;;;;;10538530;28;20028;-82
2023/10/07 10:11:08;;;;;;;5.78;3.35;;;;;;;;;;10530911;28;20085;-81
2023/10/07 10:16:18;;;;;;;7.47;3.58;;;;;;;;;;10531741;28;20043;-84
2023/10/07 10:21:23;;;;;;;7.68;3.92;;;;;;;;;;10531515;28;20062;-82
2023/10/07 10:26:27;;;;;;;7.50;3.88;;;;;;;;;;10528994;28;20103;-83
2023/10/07 10:31:34;;;;;;;7.05;4.00;;;;;;;;;;10552453;28;20031;-81
2023/10/07 10:36:42;;;;;;;6.85;3.63;;;;;;;;;;10553530;28;20401;-82
2023/10/07 10:41:44;;;;;;;8.52;3.90;;;;;;;;;;10533484;28;20016;-82
2023/10/07 10:46:50;;;;;;;5.20;3.47;;;;;;;;;;10559737;28;20031;-82
2023/10/07 10:51:55;;;;;;;6.90;4.00;;;;;;;;;;10535009;28;20035;-83
2023/10/07 10:56:58;;;;;;;5.88;3.63;;;;;;;;;;10534592;28;20390;-81
2023/10/07 11:02:01;;;;;;;6.07;4.20;;;;;;;;;;10536370;28;20107;-81
2023/10/07 11:07:07;;;;;;;5.60;4.03;;;;;;;;;;10535117;28;20032;-83
2023/10/07 11:12:16;;;;;;;6.30;3.58;;;;;;;;;;10535707;28;20047;-81
2023/10/07 11:17:17;;;;;;;6.95;4.10;;;;;;;;;;10535363;28;20020;-80
2023/10/07 11:22:22;;;;;;;6.20;3.38;;;;;;;;;;10534973;28;20024;-81
2023/10/07 11:27:23;;;;;;;6.25;3.85;;;;;;;;;;10554968;28;20023;-81
2023/10/07 11:32:33;;;;;;;7.20;3.80;;;;;;;;;;10555555;28;20031;-81
2023/10/07 11:37:36;;;;;;;7.28;3.58;;;;;;;;;;10539584;28;20060;-82
2023/10/07 11:43:08;;;;;;;4.60;2.97;;;;;;;;;;10560941;28;20111;-82
2023/10/07 11:48:09;;;;;;;7.90;4.38;;;;;;;;;;10530659;28;20493;-81
2023/10/07 11:53:10;;;;;;;5.38;3.60;;;;;;;;;;10542666;28;20067;-82
2023/10/07 11:58:15;;;;;;;6.38;3.20;;;;;;;;;;10551142;28;20028;-82
2023/10/07 12:03:17;;;;;;;6.22;3.20;;;;;;;;;;10586085;28;20043;-81
2023/10/07 12:08:19;;;;;;;5.45;3.28;;;;;;;;;;10531196;28;20111;-85
2023/10/07 12:13:20;;;;;;;5.35;3.20;;;;;;;;;;10527425;28;20028;-86
2023/10/07 12:18:27;;;;;;;5.53;3.25;;;;;;;;;;10547114;28;20027;-85
2023/10/07 12:23:30;;;;;;;5.57;2.95;;;;;;;;;;10529524;28;20055;-84
2023/10/07 12:28:42;;;;;;;4.85;2.70;;;;;;;;;;10545891;28;20495;-85
2023/10/07 12:33:50;;;;;;;8.18;3.42;;;;;;;;;;10544404;28;20146;-85
2023/10/07 12:38:51;;;;;;;6.07;3.22;;;;;;;;;;10531876;28;20020;-85
2023/10/07 12:44:03;;;;;;;5.78;3.15;;;;;;;;;;10530354;28;20126;-85
2023/10/07 12:49:14;;;;;;;6.70;3.00;;;;;;;;;;10526498;28;20031;-85
2023/10/07 12:59:59;;;;;;;8.25;3.10;;;;;;;;;;10506846;28;20107;-85
2023/10/07 13:05:00;;;;;;;6.05;3.13;;;;;;;;;;10535221;28;20161;-85
2023/10/07 13:10:22;;;;;;;6.88;3.33;;;;;;;;;;10531631;28;20035;-83
2023/10/07 13:44:09;;;;;;;6.55;3.33;;;;;;;;;;10521266;28;20429;-87
2023/10/07 14:00:46;;;;;;;5.88;3.63;;;;;;;;;;10506001;28;20012;-87
2023/10/07 14:06:02;;;;;;;7.88;3.45;;;;;;;;;;10507999;28;20025;-87
2023/10/07 14:11:23;;;;;;;7.38;3.67;;;;;;;;;;10494132;28;20021;-87
2023/10/07 14:16:58;;;;;;;5.38;3.47;;;;;;;;;;10492536;28;20033;-88
2023/10/07 14:22:48;;;;;;;6.70;4.03;;;;;;;;;;10509876;28;20053;-87
2023/10/07 14:28:46;;;;;;;10.05;4.90;;;;;;;;;;10505893;28;20070;-87
2023/10/07 14:34:26;;;;;;;7.40;4.13;;;;;;;;;;10294517;28;20471;-87
2023/10/07 14:39:53;;;;;;;10.37;4.33;;;;;;;;;;10509985;28;20047;-88
2023/10/07 15:13:50;;;;;;;7.68;4.40;;;;;;;;;;10343174;28;20046;-87
2023/10/07 15:31:02;;;;;;;7.68;3.90;;;;;;;;;;10330413;28;20034;-88
2023/10/07 15:48:15;;;;;;;7.55;4.32;;;;;;;;;;10338793;28;20038;-87
2023/10/07 15:54:03;;;;;;;9.10;4.07;;;;;;;;;;10343128;28;20077;-87
2023/10/07 15:59:15;;;;;;;7.45;3.83;;;;;;;;;;10348625;28;20129;-88
2023/10/07 16:16:20;;;;;;;10.27;4.65;;;;;;;;;;10507761;28;20394;-88
2023/10/07 16:21:58;;;;;;;8.30;4.30;;;;;;;;;;10505007;28;20428;-88
2023/10/07 16:27:41;;;;;;;7.82;4.22;;;;;;;;;;10406536;28;20072;-88
2023/10/07 16:33:35;;;;;;;6.20;3.58;;;;;;;;;;10408117;28;20108;-88
2023/10/07 16:55:53;;;;;;;10.70;4.90;;;;;;;;;;10510480;28;20033;-88
2023/10/07 17:01:22;;;;;;;7.57;4.28;;;;;;;;;;10493147;28;20024;-88
2023/10/07 17:06:51;;;;;;;8.52;4.57;;;;;;;;;;10492551;28;20108;-87
2023/10/07 17:11:53;;;;;;;8.20;5.00;;;;;;;;;;10490842;28;20024;-86
2023/10/07 17:16:54;;;;;;;8.15;5.22;;;;;;;;;;10491721;28;20024;-87
2023/10/07 17:21:55;;;;;;;12.02;5.22;;;;;;;;;;10489922;28;20067;-87
2023/10/07 17:26:56;;;;;;;9.38;4.22;;;;;;;;;;10511349;28;20531;-88
2023/10/07 17:31:57;;;;;;;8.48;4.65;;;;;;;;;;10529304;28;20021;-88
2023/10/07 17:37:00;;;;;;;7.97;4.60;;;;;;;;;;10510094;28;20546;-88
2023/10/07 17:42:02;;;;;;;10.45;5.03;;;;;;;;;;10505405;28;20174;-88
2023/10/07 17:47:03;;;;;;;8.43;4.95;;;;;;;;;;10521287;28;20032;-88
2023/10/07 17:52:04;;;;;;;8.35;4.93;;;;;;;;;;10528727;28;20037;-87
2023/10/07 17:57:06;;;;;;;7.95;4.57;;;;;;;;;;10498802;28;20024;-88
2023/10/07 18:02:08;;;;;;;10.38;5.10;;;;;;;;;;10493262;28;20017;-88
2023/10/07 18:07:09;;;;;;;9.75;4.75;;;;;;;;;;10495227;28;20025;-89
2023/10/07 18:12:10;;;;;;;9.05;4.90;;;;;;;;;;10490310;28;20051;-89
2023/10/07 18:17:11;;;;;;;8.23;4.45;;;;;;;;;;10491883;28;20490;-88
2023/10/07 18:22:12;;;;;;;5.82;4.13;;;;;;;;;;10488677;28;20029;-88
2023/10/07 18:27:13;;;;;;;9.13;4.72;;;;;;;;;;10489916;28;20012;-88
2023/10/07 18:32:15;;;;;;;8.13;4.68;;;;;;;;;;10494431;28;20039;-88
2023/10/07 18:37:16;;;;;;;8.75;4.75;;;;;;;;;;10491897;28;20419;-88
2023/10/07 18:42:17;;;;;;;9.65;5.07;;;;;;;;;;10509646;28;20017;-88
2023/10/07 18:47:18;;;;;;;7.72;5.00;;;;;;;;;;10488941;28;20068;-88
2023/10/07 18:52:19;;;;;;;7.07;4.40;;;;;;;;;;10499411;28;20051;-88
2023/10/07 18:57:20;;;;;;;10.23;4.50;;;;;;;;;;10505451;28;20560;-88
2023/10/07 19:02:21;;;;;;;10.27;5.38;;;;;;;;;;10506989;28;20027;-88
2023/10/07 19:07:22;;;;;;;9.70;7.85;;;;;;;;;;10496833;28;20082;-88
